Time;durP1;ratioP1;P1;durP2;ratioP2;P2;SDS_P1;SDS_P2;PMS_P1;PMS_P2;Temp;Humidity;BMP_temperature;BMP_pressure;BME280_temperature;BME280_humidity;BME280_pressure;Samples;Min_cycle;Max_cycle;Signal;HPM_P1;HPM_P2
2020/12/25 00:00:29;;;;;;;4.13;2.17;;;8.90;67.90;;;;;;2073624;28;20049;-64
2020/12/25 00:01:30;;;;;;;6.13;2.42;;;8.90;67.90;;;;;;2072348;28;20509;-64
2020/12/25 00:02:30;;;;;;;4.93;2.70;;;8.90;67.90;;;;;;2078415;28;20035;-64
2020/12/25 00:03:31;;;;;;;6.57;2.72;;;8.90;67.90;;;;;;2080858;28;20086;-63
2020/12/25 00:04:31;;;;;;;2.88;2.25;;;8.90;67.90;;;;;;2080485;28;20048;-65
2020/12/25 00:05:32;;;;;;;4.43;2.70;;;8.90;68.00;;;;;;2079921;28;20044;-64
2020/12/25 00:06:36;;;;;;;6.38;2.70;;;8.80;68.00;;;;;;2080135;28;20057;-64
2020/12/25 00:07:36;;;;;;;4.95;2.22;;;8.80;68.00;;;;;;2079493;28;20171;-64
2020/12/25 00:08:37;;;;;;;3.00;2.50;;;8.80;68.00;;;;;;2079568;28;20993;-63
2020/12/25 00:09:38;;;;;;;6.60;2.25;;;8.80;68.10;;;;;;2080266;28;20029;-64
2020/12/25 00:10:38;;;;;;;6.68;2.50;;;8.80;68.10;;;;;;2079470;28;20021;-66
2020/12/25 00:11:39;;;;;;;3.67;2.70;;;8.80;68.10;;;;;;2080271;28;20040;-66
2020/12/25 00:12:42;;;;;;;5.28;2.30;;;8.80;68.10;;;;;;2079717;28;20379;-64
2020/12/25 00:13:46;;;;;;;4.13;2.22;;;8.80;68.20;;;;;;2071050;28;20038;-63
2020/12/25 00:14:46;;;;;;;3.78;2.25;;;8.80;68.20;;;;;;2071687;28;20152;-64
2020/12/25 00:15:47;;;;;;;5.65;2.47;;;8.80;68.20;;;;;;2079879;28;20707;-64
2020/12/25 00:16:47;;;;;;;4.75;2.58;;;8.80;68.20;;;;;;2079549;28;20029;-63
2020/12/25 00:17:48;;;;;;;6.47;2.60;;;8.80;68.20;;;;;;2080242;28;20092;-66
2020/12/25 00:18:48;;;;;;;6.40;2.75;;;8.80;68.20;;;;;;2080395;28;21557;-63
2020/12/25 00:19:49;;;;;;;3.67;2.70;;;8.80;68.20;;;;;;2071409;28;20132;-65
2020/12/25 00:20:50;;;;;;;5.95;2.58;;;8.80;68.20;;;;;;2071806;28;20058;-66
2020/12/25 00:21:51;;;;;;;4.97;2.40;;;8.80;68.20;;;;;;2080232;28;20034;-66
2020/12/25 00:22:52;;;;;;;3.70;2.25;;;8.80;68.30;;;;;;2079735;28;20523;-65
2020/12/25 00:23:52;;;;;;;9.10;2.90;;;8.80;68.30;;;;;;2080337;28;20331;-66
2020/12/25 00:24:53;;;;;;;4.40;2.35;;;8.80;68.30;;;;;;2079844;28;20116;-63
2020/12/25 00:25:53;;;;;;;4.13;2.45;;;8.80;68.30;;;;;;2080305;28;20034;-63
2020/12/25 00:26:54;;;;;;;5.05;2.70;;;8.70;68.20;;;;;;2080410;28;20037;-65
2020/12/25 00:27:54;;;;;;;5.32;2.60;;;8.80;68.30;;;;;;2079847;28;20103;-64
2020/12/25 00:28:57;;;;;;;5.95;2.60;;;8.80;68.30;;;;;;2079794;28;20068;-64
2020/12/25 00:29:57;;;;;;;2.35;2.15;;;8.80;68.30;;;;;;2080363;28;20022;-63
2020/12/25 00:30:58;;;;;;;4.63;2.50;;;8.80;68.20;;;;;;2079767;28;20037;-63
2020/12/25 00:31:58;;;;;;;5.40;2.78;;;8.80;68.20;;;;;;2079831;28;20104;-64
2020/12/25 00:32:59;;;;;;;3.17;2.33;;;8.80;68.20;;;;;;2079943;28;20452;-63
2020/12/25 00:34:04;;;;;;;2.80;2.45;;;8.80;68.30;;;;;;2080106;28;20117;-63
2020/12/25 00:35:05;;;;;;;3.25;2.30;;;8.80;68.20;;;;;;2080052;28;20111;-65
2020/12/25 00:36:05;;;;;;;3.75;2.63;;;8.80;68.30;;;;;;2080058;28;20103;-64
2020/12/25 00:37:06;;;;;;;4.13;2.60;;;8.80;68.20;;;;;;2080050;28;20039;-66
2020/12/25 00:38:06;;;;;;;8.18;2.60;;;8.80;68.20;;;;;;2080023;28;20033;-65
2020/12/25 00:39:16;;;;;;;3.28;2.08;;;8.80;68.10;;;;;;2079719;28;20407;-65
2020/12/25 00:40:16;;;;;;;3.95;2.28;;;8.90;68.10;;;;;;2079538;28;20034;-65
2020/12/25 00:41:17;;;;;;;7.70;2.80;;;8.90;68.10;;;;;;2079952;28;20439;-65
2020/12/25 00:42:17;;;;;;;3.42;2.13;;;8.80;68.10;;;;;;2080282;28;20024;-65
2020/12/25 00:43:18;;;;;;;3.53;2.45;;;8.90;68.10;;;;;;2059382;28;20022;-65
2020/12/25 00:44:19;;;;;;;3.38;2.13;;;8.80;68.00;;;;;;2059815;28;20034;-65
2020/12/25 00:45:19;;;;;;;6.47;2.55;;;8.90;68.00;;;;;;2079550;28;20627;-65
2020/12/25 00:46:21;;;;;;;5.00;2.35;;;8.90;67.90;;;;;;2079057;28;20009;-65
2020/12/25 00:47:21;;;;;;;4.47;2.20;;;8.90;67.90;;;;;;2071849;28;20031;-65
2020/12/25 00:48:23;;;;;;;5.22;2.20;;;8.90;67.90;;;;;;2071974;28;20037;-65
2020/12/25 00:49:24;;;;;;;5.28;2.10;;;8.90;67.90;;;;;;2079523;28;20033;-65
2020/12/25 00:50:24;;;;;;;3.20;2.00;;;8.90;67.80;;;;;;2080231;28;20530;-65
2020/12/25 00:51:25;;;;;;;4.03;2.40;;;8.90;67.70;;;;;;2079770;28;20075;-65
2020/12/25 00:52:26;;;;;;;3.55;2.22;;;8.90;67.70;;;;;;2079616;28;20170;-65
2020/12/25 00:53:27;;;;;;;5.60;2.40;;;8.90;67.60;;;;;;2079910;28;20025;-65
2020/12/25 00:54:27;;;;;;;4.82;2.42;;;8.90;67.50;;;;;;2079295;28;20584;-66
2020/12/25 00:55:28;;;;;;;5.20;2.40;;;8.90;67.40;;;;;;2080288;28;20549;-66
2020/12/25 00:56:28;;;;;;;4.78;2.70;;;8.90;67.40;;;;;;2080077;28;20333;-65
2020/12/25 00:57:29;;;;;;;4.80;2.17;;;8.90;67.40;;;;;;2079559;28;20053;-65
2020/12/25 00:58:29;;;;;;;4.07;2.30;;;8.90;67.30;;;;;;2079671;28;20034;-65
2020/12/25 00:59:30;;;;;;;4.05;2.25;;;8.90;67.20;;;;;;2080128;28;20468;-65
2020/12/25 01:00:31;;;;;;;3.97;2.20;;;8.90;67.20;;;;;;2071429;28;20260;-65
2020/12/25 01:01:31;;;;;;;3.58;2.13;;;8.90;67.20;;;;;;2071039;28;20038;-65
2020/12/25 01:02:32;;;;;;;3.20;2.03;;;8.90;67.30;;;;;;2071555;28;20030;-66
2020/12/25 01:03:33;;;;;;;4.70;2.20;;;8.90;67.30;;;;;;2079885;28;20034;-65
2020/12/25 01:04:34;;;;;;;5.43;2.47;;;8.90;67.20;;;;;;2080034;28;20025;-66
2020/12/25 01:05:35;;;;;;;5.05;2.55;;;8.90;67.20;;;;;;2079889;28;20119;-65
2020/12/25 01:06:35;;;;;;;3.92;2.10;;;8.90;67.20;;;;;;2079815;28;20048;-65
2020/12/25 01:07:36;;;;;;;4.65;2.50;;;8.90;67.10;;;;;;2079903;28;20033;-65
2020/12/25 01:08:37;;;;;;;2.80;1.92;;;8.90;67.00;;;;;;2079041;28;20371;-65
2020/12/25 01:09:37;;;;;;;3.58;2.00;;;8.90;67.00;;;;;;2079428;28;20037;-65
2020/12/25 01:10:38;;;;;;;4.45;2.15;;;8.90;67.00;;;;;;2080537;28;20432;-65
2020/12/25 01:11:39;;;;;;;4.25;2.08;;;8.90;67.00;;;;;;2079700;28;20108;-65
2020/12/25 01:12:40;;;;;;;3.58;2.15;;;8.90;67.00;;;;;;2079902;28;20109;-65
2020/12/25 01:13:41;;;;;;;3.17;2.22;;;8.90;66.90;;;;;;2076443;28;20479;-66
2020/12/25 01:14:42;;;;;;;4.95;2.15;;;8.90;67.70;;;;;;2075454;28;20080;-65
2020/12/25 01:15:42;;;;;;;3.90;2.05;;;8.90;67.00;;;;;;2081317;28;20060;-65
2020/12/25 01:16:43;;;;;;;3.83;1.95;;;8.80;66.90;;;;;;2081436;28;20033;-65
2020/12/25 01:17:43;;;;;;;4.72;2.15;;;8.90;67.70;;;;;;2082061;28;20026;-65
2020/12/25 01:18:45;;;;;;;4.80;2.13;;;8.90;67.00;;;;;;2081413;28;20408;-65
2020/12/25 01:19:46;;;;;;;4.65;2.35;;;8.80;66.90;;;;;;2081418;28;20038;-64
2020/12/25 01:20:47;;;;;;;4.65;2.30;;;8.90;66.90;;;;;;2081429;28;20021;-65
2020/12/25 01:21:47;;;;;;;3.10;2.22;;;8.90;66.90;;;;;;2081469;28;20048;-64
2020/12/25 01:22:48;;;;;;;3.70;2.00;;;8.80;66.70;;;;;;2081432;28;20041;-64
2020/12/25 01:23:48;;;;;;;4.25;2.03;;;8.80;66.70;;;;;;2080832;28;20026;-64
2020/12/25 01:24:49;;;;;;;3.92;2.10;;;8.80;66.70;;;;;;2080885;28;20072;-64
2020/12/25 01:25:49;;;;;;;3.83;2.40;;;8.80;66.70;;;;;;2081811;28;20135;-64
2020/12/25 01:26:50;;;;;;;3.65;2.08;;;8.80;66.70;;;;;;2081242;28;20506;-64
2020/12/25 01:27:51;;;;;;;3.50;2.05;;;8.80;66.70;;;;;;2081699;28;20025;-64
2020/12/25 01:28:54;;;;;;;4.20;2.60;;;8.80;66.60;;;;;;2080815;28;20336;-64
2020/12/25 01:29:55;;;;;;;3.90;2.47;;;8.80;66.70;;;;;;2081259;28;20034;-64
2020/12/25 01:30:55;;;;;;;2.92;1.80;;;8.80;66.50;;;;;;2081590;28;20033;-65
2020/12/25 01:31:56;;;;;;;5.13;2.50;;;8.80;66.60;;;;;;2081194;28;20037;-64
2020/12/25 01:32:56;;;;;;;3.35;2.00;;;8.80;66.60;;;;;;2081725;28;20029;-64
2020/12/25 01:33:57;;;;;;;4.72;2.30;;;8.70;66.40;;;;;;2081531;28;20025;-64
2020/12/25 01:34:57;;;;;;;2.55;2.10;;;8.70;66.40;;;;;;2080972;28;20029;-64
2020/12/25 01:35:59;;;;;;;2.65;1.85;;;8.70;66.40;;;;;;2081411;28;20451;-66
2020/12/25 01:36:59;;;;;;;5.57;2.58;;;8.70;66.40;;;;;;2081357;28;20033;-66
2020/12/25 01:38:00;;;;;;;4.03;1.98;;;8.70;66.40;;;;;;2081253;28;20031;-66
2020/12/25 01:39:00;;;;;;;5.43;2.50;;;8.70;66.40;;;;;;2079916;28;20108;-66
2020/12/25 01:40:01;;;;;;;3.13;2.20;;;8.70;66.30;;;;;;2080853;28;20525;-65
2020/12/25 01:41:02;;;;;;;3.90;2.20;;;8.70;66.30;;;;;;2070304;28;20018;-65
2020/12/25 01:42:03;;;;;;;3.88;2.00;;;8.70;66.30;;;;;;2069752;28;20030;-65
2020/12/25 01:43:04;;;;;;;3.33;1.75;;;8.70;66.30;;;;;;2080983;28;20053;-65
2020/12/25 01:44:04;;;;;;;5.60;1.90;;;8.70;67.00;;;;;;2081161;28;20018;-66
2020/12/25 01:45:05;;;;;;;3.60;2.08;;;8.70;66.20;;;;;;2080989;28;20037;-66
2020/12/25 01:46:06;;;;;;;5.35;1.98;;;8.70;66.20;;;;;;2080431;28;20030;-66
2020/12/25 01:47:06;;;;;;;4.43;2.03;;;8.60;66.10;;;;;;2081074;28;20034;-66
2020/12/25 01:48:07;;;;;;;5.10;2.03;;;8.60;66.10;;;;;;2080863;28;20113;-65
2020/12/25 01:49:07;;;;;;;4.50;2.25;;;8.60;66.10;;;;;;2069972;28;20026;-65
2020/12/25 01:50:09;;;;;;;3.17;1.67;;;8.60;66.10;;;;;;2069859;28;20972;-65
2020/12/25 01:51:13;;;;;;;4.22;1.73;;;8.60;66.10;;;;;;2081582;28;20502;-66
2020/12/25 01:52:14;;;;;;;4.15;2.20;;;8.60;66.00;;;;;;2080997;28;20025;-66
2020/12/25 01:53:17;;;;;;;6.63;2.58;;;8.60;66.10;;;;;;2072431;28;20060;-65
2020/12/25 01:54:18;;;;;;;3.90;2.13;;;8.60;66.00;;;;;;2072632;28;20119;-65
2020/12/25 01:55:26;;;;;;;2.70;1.70;;;8.60;66.00;;;;;;2081240;28;20033;-65
2020/12/25 01:56:26;;;;;;;3.40;2.10;;;8.60;66.00;;;;;;2081092;28;20435;-66
2020/12/25 01:57:28;;;;;;;3.03;1.83;;;8.60;66.00;;;;;;2082001;28;20173;-66
2020/12/25 01:58:31;;;;;;;2.97;1.80;;;8.60;66.00;;;;;;2080979;28;20022;-65
2020/12/25 01:59:32;;;;;;;4.25;1.80;;;8.60;66.00;;;;;;2081242;28;20511;-65
2020/12/25 02:00:33;;;;;;;6.47;2.28;;;8.60;66.00;;;;;;2081420;28;20039;-65
2020/12/25 02:01:35;;;;;;;4.22;1.90;;;8.60;66.00;;;;;;2071796;28;20113;-66
2020/12/25 02:02:35;;;;;;;4.22;2.00;;;8.60;66.00;;;;;;2071222;28;20033;-65
2020/12/25 02:03:37;;;;;;;6.82;1.80;;;8.50;66.00;;;;;;2081210;28;20091;-65
2020/12/25 02:04:37;;;;;;;4.03;1.83;;;8.50;66.00;;;;;;2080169;28;20057;-65
2020/12/25 02:05:38;;;;;;;6.15;1.80;;;8.50;66.00;;;;;;2081344;28;20091;-65
2020/12/25 02:06:39;;;;;;;2.47;1.63;;;8.50;66.00;;;;;;2081287;28;20026;-65
2020/12/25 02:07:39;;;;;;;3.38;1.73;;;8.50;66.00;;;;;;2081104;28;20467;-65
2020/12/25 02:08:40;;;;;;;4.22;2.10;;;8.50;66.00;;;;;;2080080;28;20033;-66
2020/12/25 02:09:41;;;;;;;4.90;1.80;;;8.50;65.90;;;;;;2080405;28;20487;-65
2020/12/25 02:10:42;;;;;;;3.97;1.98;;;8.50;66.00;;;;;;2081387;28;20025;-66
2020/12/25 02:11:43;;;;;;;4.68;1.92;;;8.50;66.00;;;;;;2081590;28;20029;-66
2020/12/25 02:12:45;;;;;;;6.68;1.95;;;8.50;66.00;;;;;;2080697;28;20040;-65
2020/12/25 02:13:45;;;;;;;3.45;2.17;;;8.50;65.90;;;;;;2081196;28;20120;-65
2020/12/25 02:14:46;;;;;;;4.82;1.92;;;8.50;65.90;;;;;;2081096;28;20037;-65
2020/12/25 02:15:47;;;;;;;3.45;1.90;;;8.50;66.00;;;;;;2075547;28;20033;-65
2020/12/25 02:16:47;;;;;;;6.22;2.10;;;8.50;66.00;;;;;;2075744;28;20057;-65
2020/12/25 02:17:48;;;;;;;3.47;1.90;;;8.50;66.00;;;;;;2081466;28;20888;-65
2020/12/25 02:18:49;;;;;;;5.32;1.70;;;8.50;66.00;;;;;;2072188;28;20030;-65
2020/12/25 02:19:49;;;;;;;4.60;1.98;;;8.50;66.00;;;;;;2071372;28;20124;-65
2020/12/25 02:20:50;;;;;;;3.88;1.73;;;8.50;66.00;;;;;;2080801;28;20025;-65
2020/12/25 02:21:50;;;;;;;2.63;1.80;;;8.50;66.00;;;;;;2080840;28;20026;-65
2020/12/25 02:22:51;;;;;;;4.47;2.30;;;8.50;66.00;;;;;;2076499;28;20079;-65
2020/12/25 02:23:52;;;;;;;4.53;2.20;;;8.50;66.00;;;;;;2076785;28;20036;-66
2020/12/25 02:24:52;;;;;;;3.90;1.80;;;8.50;66.00;;;;;;2079847;28;20040;-65
2020/12/25 02:25:53;;;;;;;6.20;1.88;;;8.50;66.00;;;;;;2080619;28;20048;-65
2020/12/25 02:26:53;;;;;;;4.22;1.80;;;8.50;66.00;;;;;;2080947;28;20062;-65
2020/12/25 02:27:54;;;;;;;3.08;2.05;;;8.50;66.00;;;;;;2081052;28;20068;-65
2020/12/25 02:28:54;;;;;;;3.08;1.65;;;8.50;66.00;;;;;;2080665;28;20892;-65
2020/12/25 02:29:55;;;;;;;7.97;2.10;;;8.50;66.00;;;;;;2080992;28;20040;-64
2020/12/25 02:30:55;;;;;;;4.93;1.80;;;8.50;66.00;;;;;;2075829;28;20100;-64
2020/12/25 02:31:56;;;;;;;4.40;1.65;;;8.50;66.00;;;;;;2076243;28;20052;-64
2020/12/25 02:32:57;;;;;;;3.88;1.92;;;8.50;66.00;;;;;;2080181;28;20025;-64
2020/12/25 02:33:57;;;;;;;5.40;2.08;;;8.50;66.00;;;;;;2080957;28;20079;-64
2020/12/25 02:34:58;;;;;;;5.47;2.20;;;8.50;66.00;;;;;;2080940;28;20036;-64
2020/12/25 02:35:58;;;;;;;3.53;1.67;;;8.50;66.00;;;;;;2080872;28;20084;-65
2020/12/25 02:36:59;;;;;;;10.02;2.35;;;8.50;66.00;;;;;;2081124;28;20722;-63
2020/12/25 02:37:59;;;;;;;4.45;1.92;;;8.50;66.00;;;;;;2080683;28;20026;-64
2020/12/25 02:39:00;;;;;;;6.22;2.15;;;8.40;65.90;;;;;;2080294;28;20036;-65
2020/12/25 02:40:01;;;;;;;3.95;2.05;;;8.40;65.90;;;;;;2080470;28;20131;-64
2020/12/25 02:41:01;;;;;;;2.10;1.73;;;8.40;65.90;;;;;;2081229;28;20117;-63
2020/12/25 02:42:02;;;;;;;3.95;1.77;;;8.40;65.90;;;;;;2080794;28;20550;-63
2020/12/25 02:43:02;;;;;;;6.13;2.00;;;8.40;65.90;;;;;;2080404;28;20048;-64
2020/12/25 02:44:03;;;;;;;5.25;2.05;;;8.40;65.90;;;;;;2080378;28;20022;-64
2020/12/25 02:45:05;;;;;;;5.05;1.85;;;8.40;66.00;;;;;;2080173;28;20112;-65
2020/12/25 02:46:06;;;;;;;2.55;2.03;;;8.40;65.90;;;;;;2080159;28;20032;-65
2020/12/25 02:47:07;;;;;;;4.85;2.17;;;8.40;66.00;;;;;;2080617;28;20025;-65
2020/12/25 02:48:07;;;;;;;4.32;1.70;;;8.40;66.00;;;;;;2075929;28;20045;-65
2020/12/25 02:49:08;;;;;;;5.57;1.95;;;8.40;66.00;;;;;;2075492;28;20032;-65
2020/12/25 02:50:08;;;;;;;4.43;2.13;;;8.40;66.00;;;;;;2081354;28;20031;-64
2020/12/25 02:51:09;;;;;;;3.78;1.63;;;8.40;66.00;;;;;;2079943;28;20100;-65
2020/12/25 02:52:09;;;;;;;7.53;2.05;;;8.40;66.00;;;;;;2080879;28;20025;-65
2020/12/25 02:53:10;;;;;;;8.10;2.15;;;8.40;65.90;;;;;;2080513;28;20025;-66
2020/12/25 02:54:10;;;;;;;2.50;1.77;;;8.40;66.60;;;;;;2080327;28;20084;-66
2020/12/25 02:55:13;;;;;;;3.58;1.67;;;8.40;65.80;;;;;;2081472;28;20029;-66
2020/12/25 02:56:18;;;;;;;3.70;1.80;;;8.40;65.90;;;;;;2080473;28;20020;-66
2020/12/25 02:57:19;;;;;;;5.95;2.22;;;8.40;65.90;;;;;;2080484;28;20732;-66
2020/12/25 02:58:19;;;;;;;3.13;1.80;;;8.30;65.80;;;;;;2080913;28;20100;-66
2020/12/25 02:59:20;;;;;;;3.33;1.85;;;8.30;65.80;;;;;;2080459;28;20116;-66
2020/12/25 03:00:21;;;;;;;3.47;2.17;;;8.30;65.80;;;;;;2080350;28;20092;-66
2020/12/25 03:01:21;;;;;;;3.97;2.00;;;8.30;65.80;;;;;;2080238;28;20414;-66
2020/12/25 03:02:22;;;;;;;4.32;2.30;;;8.30;65.80;;;;;;2080769;28;20109;-66
2020/12/25 03:03:22;;;;;;;4.93;1.90;;;8.30;65.80;;;;;;2081000;28;20022;-66
2020/12/25 03:04:23;;;;;;;3.42;2.00;;;8.30;65.90;;;;;;2080626;28;20060;-66
2020/12/25 03:05:23;;;;;;;4.38;1.75;;;8.30;65.90;;;;;;2080411;28;20159;-65
2020/12/25 03:06:24;;;;;;;5.10;2.00;;;8.20;65.80;;;;;;2080631;28;20053;-66
2020/12/25 03:07:24;;;;;;;2.42;1.70;;;8.20;65.80;;;;;;2072052;28;20026;-66
2020/12/25 03:08:25;;;;;;;5.25;2.20;;;8.20;65.80;;;;;;2072134;28;20561;-65
2020/12/25 03:09:26;;;;;;;5.82;2.10;;;8.20;65.80;;;;;;2080029;28;20147;-65
2020/12/25 03:10:26;;;;;;;3.20;1.95;;;8.20;65.90;;;;;;2072225;28;20018;-65
2020/12/25 03:11:27;;;;;;;5.13;1.88;;;8.20;65.80;;;;;;2071942;28;20073;-66
2020/12/25 03:12:27;;;;;;;3.88;2.05;;;8.20;65.80;;;;;;2080493;28;20447;-65
2020/12/25 03:13:28;;;;;;;3.33;1.98;;;8.10;65.70;;;;;;2080040;28;20033;-65
2020/12/25 03:14:29;;;;;;;4.78;2.15;;;8.10;65.70;;;;;;2079940;28;21122;-65
2020/12/25 03:15:29;;;;;;;7.60;2.30;;;8.10;65.80;;;;;;2080470;28;20065;-65
2020/12/25 03:16:30;;;;;;;3.92;2.10;;;8.10;65.80;;;;;;2079834;28;20048;-65
2020/12/25 03:17:30;;;;;;;5.22;2.13;;;8.10;65.80;;;;;;2072233;28;20455;-65
2020/12/25 03:18:31;;;;;;;4.78;2.33;;;8.00;65.80;;;;;;2071881;28;20064;-66
2020/12/25 03:19:31;;;;;;;7.20;2.58;;;8.00;65.80;;;;;;2080265;28;20030;-65
2020/12/25 03:20:32;;;;;;;4.65;1.77;;;8.00;65.90;;;;;;2080713;28;20029;-65
2020/12/25 03:21:33;;;;;;;4.00;1.90;;;8.00;65.90;;;;;;2080656;28;20045;-66
2020/12/25 03:22:33;;;;;;;4.10;1.90;;;8.00;65.90;;;;;;2079787;28;20033;-65
2020/12/25 03:23:34;;;;;;;7.60;2.55;;;7.90;65.90;;;;;;2080499;28;20443;-66
2020/12/25 03:24:34;;;;;;;4.38;2.00;;;7.90;65.90;;;;;;2079627;28;20045;-65
2020/12/25 03:25:35;;;;;;;4.35;2.08;;;7.90;66.00;;;;;;2080273;28;20025;-65
2020/12/25 03:26:35;;;;;;;7.75;2.42;;;7.90;66.10;;;;;;2080267;28;20033;-65
2020/12/25 03:27:36;;;;;;;8.38;2.28;;;7.80;66.00;;;;;;2080262;28;20033;-65
2020/12/25 03:28:36;;;;;;;5.07;2.42;;;7.80;66.10;;;;;;2079824;28;20029;-66
2020/12/25 03:29:37;;;;;;;5.40;2.15;;;7.80;66.20;;;;;;2079932;28;20370;-66
2020/12/25 03:30:38;;;;;;;4.68;2.17;;;7.80;66.30;;;;;;2080874;28;20049;-65
2020/12/25 03:31:38;;;;;;;5.97;2.33;;;7.80;66.40;;;;;;2071596;28;20049;-65
2020/12/25 03:32:39;;;;;;;4.03;2.05;;;7.70;66.40;;;;;;2072191;28;20046;-65
2020/12/25 03:33:39;;;;;;;4.00;2.53;;;7.70;66.40;;;;;;2080258;28;20466;-65
2020/12/25 03:34:40;;;;;;;6.75;2.20;;;7.70;66.40;;;;;;2074629;28;20456;-65
2020/12/25 03:35:40;;;;;;;4.68;2.20;;;7.70;66.50;;;;;;2075695;28;20029;-65
2020/12/25 03:36:42;;;;;;;7.00;2.90;;;7.70;66.50;;;;;;2080098;28;20487;-65
2020/12/25 03:37:43;;;;;;;3.58;2.20;;;7.70;66.50;;;;;;2079949;28;20463;-64
2020/12/25 03:38:44;;;;;;;5.15;1.90;;;7.70;66.60;;;;;;2080620;28;20041;-64
2020/12/25 03:39:46;;;;;;;7.22;2.30;;;7.60;66.60;;;;;;2079872;28;20025;-63
2020/12/25 03:40:47;;;;;;;6.47;2.35;;;7.60;66.60;;;;;;2080377;28;20030;-64
2020/12/25 03:41:47;;;;;;;4.32;2.20;;;7.60;66.60;;;;;;2080933;28;20032;-65
2020/12/25 03:42:48;;;;;;;4.55;2.42;;;7.60;66.70;;;;;;2080575;28;20486;-65
2020/12/25 03:43:49;;;;;;;4.53;2.25;;;7.60;66.70;;;;;;2081422;28;20455;-63
2020/12/25 03:44:54;;;;;;;5.63;2.53;;;7.60;67.40;;;;;;2080108;28;20040;-63
2020/12/25 03:45:55;;;;;;;3.78;2.45;;;7.60;66.80;;;;;;2080129;28;20116;-63
2020/12/25 03:46:55;;;;;;;7.57;2.65;;;7.60;66.80;;;;;;2080223;28;20041;-64
2020/12/25 03:48:00;;;;;;;4.53;1.90;;;7.50;66.70;;;;;;2080454;28;20030;-65
2020/12/25 03:49:05;;;;;;;4.18;2.28;;;7.50;66.70;;;;;;2079909;28;20071;-63
2020/12/25 03:50:06;;;;;;;5.28;2.92;;;7.50;66.70;;;;;;2080853;28;20037;-65
2020/12/25 03:51:06;;;;;;;3.22;2.25;;;7.50;66.80;;;;;;2080154;28;20030;-65
2020/12/25 03:52:07;;;;;;;3.80;2.58;;;7.50;66.80;;;;;;2079501;28;20029;-65
2020/12/25 03:53:08;;;;;;;4.50;2.60;;;7.50;66.80;;;;;;2080585;28;20026;-66
2020/12/25 03:54:08;;;;;;;3.95;2.38;;;7.40;66.90;;;;;;2080195;28;20068;-66
2020/12/25 03:55:09;;;;;;;3.20;2.20;;;7.40;66.90;;;;;;2080687;28;20287;-65
2020/12/25 03:56:09;;;;;;;4.30;2.63;;;7.40;66.90;;;;;;2080764;28;20383;-65
2020/12/25 03:57:10;;;;;;;4.68;2.45;;;7.40;66.90;;;;;;2080501;28;20039;-65
2020/12/25 03:58:10;;;;;;;6.28;2.45;;;7.40;67.00;;;;;;2080632;28;20021;-65
2020/12/25 03:59:11;;;;;;;4.85;2.55;;;7.40;67.00;;;;;;2079155;28;20016;-65
2020/12/25 04:00:11;;;;;;;5.82;2.70;;;7.40;67.10;;;;;;2079776;28;20032;-66
2020/12/25 04:01:12;;;;;;;4.18;1.90;;;7.30;67.00;;;;;;2079598;28;20025;-66
2020/12/25 04:02:13;;;;;;;10.02;2.50;;;7.30;67.00;;;;;;2080696;28;20159;-66
2020/12/25 04:03:13;;;;;;;5.88;2.05;;;7.30;67.10;;;;;;2071467;28;20051;-65
2020/12/25 04:04:14;;;;;;;6.72;2.55;;;7.30;67.20;;;;;;2071926;28;20357;-66
2020/12/25 04:05:15;;;;;;;4.35;2.35;;;7.30;67.10;;;;;;2080676;28;20345;-65
2020/12/25 04:06:16;;;;;;;4.93;2.60;;;7.20;67.10;;;;;;2080377;28;20398;-65
2020/12/25 04:07:16;;;;;;;5.25;2.58;;;7.20;67.10;;;;;;2080137;28;20037;-64
2020/12/25 04:08:17;;;;;;;3.75;2.50;;;7.20;67.20;;;;;;2080244;28;20052;-63
2020/12/25 04:09:17;;;;;;;4.97;2.50;;;7.20;67.20;;;;;;2078942;28;20044;-65
2020/12/25 04:10:18;;;;;;;8.00;2.65;;;7.20;67.20;;;;;;2072096;28;20108;-65
2020/12/25 04:11:19;;;;;;;5.25;2.83;;;7.20;67.30;;;;;;2071624;28;20025;-65
2020/12/25 04:12:19;;;;;;;4.18;2.30;;;7.10;67.20;;;;;;2071844;28;20436;-65
2020/12/25 04:13:22;;;;;;;5.53;2.22;;;7.10;67.20;;;;;;2071051;28;20030;-66
2020/12/25 04:14:23;;;;;;;4.35;2.28;;;7.10;67.30;;;;;;2071395;28;20022;-65
2020/12/25 04:15:24;;;;;;;3.38;2.22;;;7.10;67.30;;;;;;2071437;28;20138;-66
2020/12/25 04:16:24;;;;;;;7.68;2.78;;;7.10;67.40;;;;;;2079349;28;20187;-65
2020/12/25 04:17:25;;;;;;;4.07;1.95;;;7.10;67.40;;;;;;2079775;28;20116;-66
2020/12/25 04:18:26;;;;;;;4.47;2.13;;;7.10;67.40;;;;;;2079832;28;20124;-66
2020/12/25 04:19:26;;;;;;;5.65;2.25;;;7.10;67.50;;;;;;2080049;28;20037;-65
2020/12/25 04:20:27;;;;;;;4.43;2.78;;;7.10;67.50;;;;;;2080148;28;20060;-65
2020/12/25 04:21:27;;;;;;;6.47;2.92;;;7.00;67.50;;;;;;2080550;28;20443;-65
2020/12/25 04:22:28;;;;;;;3.92;2.40;;;7.00;67.50;;;;;;2071344;28;20041;-65
2020/12/25 04:23:28;;;;;;;6.28;2.40;;;7.00;67.50;;;;;;2070511;28;20108;-65
2020/12/25 04:24:29;;;;;;;6.07;2.20;;;7.00;67.60;;;;;;2079561;28;20037;-65
2020/12/25 04:25:29;;;;;;;4.45;2.55;;;7.00;67.60;;;;;;2080019;28;20025;-65
2020/12/25 04:26:30;;;;;;;4.47;2.70;;;7.00;67.70;;;;;;2079769;28;20115;-65
2020/12/25 04:27:31;;;;;;;5.35;2.30;;;6.90;67.60;;;;;;2080215;28;20025;-65
2020/12/25 04:28:31;;;;;;;5.63;2.40;;;7.00;67.70;;;;;;2079700;28;20534;-65
2020/12/25 04:29:32;;;;;;;7.35;2.53;;;6.90;67.70;;;;;;2079594;28;20120;-65
2020/12/25 04:30:32;;;;;;;7.35;2.30;;;6.90;67.80;;;;;;2080030;28;20124;-65
2020/12/25 04:31:33;;;;;;;4.63;2.30;;;6.90;67.80;;;;;;2070605;28;20021;-65
2020/12/25 04:32:33;;;;;;;5.07;2.53;;;6.90;67.80;;;;;;2071710;28;20029;-65
2020/12/25 04:33:34;;;;;;;6.57;2.33;;;6.90;67.90;;;;;;2080305;28;20014;-65
2020/12/25 04:34:35;;;;;;;4.00;2.20;;;6.90;67.90;;;;;;2079916;28;20041;-65
2020/12/25 04:35:35;;;;;;;5.18;2.33;;;6.80;67.90;;;;;;2080395;28;20352;-65
2020/12/25 04:36:36;;;;;;;5.15;2.22;;;6.80;67.90;;;;;;2079861;28;20022;-65
2020/12/25 04:37:37;;;;;;;4.80;2.20;;;6.80;68.00;;;;;;2071376;28;20076;-65
2020/12/25 04:38:37;;;;;;;3.50;2.20;;;6.80;68.00;;;;;;2071174;28;20042;-65
2020/12/25 04:39:38;;;;;;;6.55;2.40;;;6.80;68.00;;;;;;2079712;28;20120;-65
2020/12/25 04:40:42;;;;;;;4.28;2.40;;;6.80;68.10;;;;;;2079581;28;20037;-65
2020/12/25 04:41:42;;;;;;;6.20;2.50;;;6.80;68.00;;;;;;2068238;28;20117;-65
2020/12/25 04:42:50;;;;;;;5.30;2.22;;;6.80;68.00;;;;;;2067802;28;20435;-65
2020/12/25 04:43:52;;;;;;;6.82;2.45;;;6.80;68.10;;;;;;2079712;28;20368;-65
2020/12/25 04:44:53;;;;;;;6.85;2.50;;;6.70;68.10;;;;;;2079200;28;20041;-65
2020/12/25 04:45:54;;;;;;;4.22;2.15;;;6.70;68.10;;;;;;2079858;28;20069;-66
2020/12/25 04:47:06;;;;;;;4.63;2.30;;;6.70;68.10;;;;;;2079245;28;20512;-65
2020/12/25 04:48:07;;;;;;;5.47;2.13;;;6.70;68.10;;;;;;2080087;28;20025;-65
2020/12/25 04:49:08;;;;;;;6.75;2.40;;;6.70;68.10;;;;;;2081707;28;20542;-65
2020/12/25 04:50:09;;;;;;;5.45;2.22;;;6.70;68.10;;;;;;2081556;28;20030;-65
2020/12/25 04:51:10;;;;;;;8.35;2.97;;;6.70;68.10;;;;;;2072712;28;20348;-65
2020/12/25 04:52:10;;;;;;;5.35;2.60;;;6.70;68.20;;;;;;2072900;28;20411;-64
2020/12/25 04:53:11;;;;;;;6.20;2.20;;;6.60;68.10;;;;;;2081372;28;20021;-65
2020/12/25 04:54:12;;;;;;;7.47;2.22;;;6.60;68.20;;;;;;2081413;28;20025;-65
2020/12/25 04:55:12;;;;;;;9.93;2.78;;;6.70;68.30;;;;;;2081342;28;20037;-65
2020/12/25 04:56:13;;;;;;;3.80;2.13;;;6.60;68.20;;;;;;2081310;28;20013;-66
2020/12/25 04:57:13;;;;;;;4.45;2.22;;;6.60;68.30;;;;;;2081872;28;20013;-64
2020/12/25 04:58:14;;;;;;;4.88;2.05;;;6.60;68.30;;;;;;2081435;28;20036;-64
2020/12/25 04:59:14;;;;;;;5.85;2.20;;;6.60;68.30;;;;;;2081721;28;20029;-65
2020/12/25 05:00:16;;;;;;;6.55;2.53;;;6.60;68.30;;;;;;2082225;28;20036;-64
2020/12/25 05:01:17;;;;;;;4.20;2.38;;;6.60;68.30;;;;;;2081066;28;20131;-63
2020/12/25 05:02:20;;;;;;;4.93;2.30;;;6.60;68.40;;;;;;2080941;28;20037;-65
2020/12/25 05:03:21;;;;;;;11.73;2.83;;;6.60;68.50;;;;;;2081789;28;20033;-66
2020/12/25 05:04:23;;;;;;;3.53;2.10;;;6.60;68.50;;;;;;2081421;28;20030;-65
2020/12/25 05:05:30;;;;;;;7.15;2.60;;;6.50;68.50;;;;;;2081056;28;20463;-65
2020/12/25 05:06:31;;;;;;;12.18;3.47;;;6.50;68.50;;;;;;2081314;28;20029;-65
2020/12/25 05:07:33;;;;;;;4.47;2.58;;;6.50;68.50;;;;;;2080769;28;20080;-66
2020/12/25 05:08:45;;;;;;;6.55;2.58;;;6.50;68.60;;;;;;2081353;28;20033;-65
2020/12/25 05:09:46;;;;;;;4.90;2.50;;;6.50;68.70;;;;;;2081381;28;20037;-65
2020/12/25 05:10:47;;;;;;;6.53;2.22;;;6.50;68.70;;;;;;2081471;28;20144;-65
2020/12/25 05:11:52;;;;;;;7.47;2.92;;;6.50;68.70;;;;;;2082155;28;20053;-65
2020/12/25 05:12:54;;;;;;;5.80;2.53;;;6.50;68.80;;;;;;2081505;28;20137;-65
2020/12/25 05:13:54;;;;;;;9.15;2.95;;;6.50;68.90;;;;;;2081726;28;20037;-66
2020/12/25 05:14:55;;;;;;;9.10;2.95;;;6.50;68.90;;;;;;2071717;28;20429;-65
2020/12/25 05:15:55;;;;;;;6.05;2.30;;;6.50;69.00;;;;;;2073192;28;20057;-63
2020/12/25 05:16:58;;;;;;;5.28;2.30;;;6.50;69.00;;;;;;2081603;28;20028;-64
2020/12/25 05:18:00;;;;;;;5.60;2.20;;;6.50;69.10;;;;;;2081108;28;20013;-66
2020/12/25 05:19:01;;;;;;;4.60;2.40;;;6.50;69.10;;;;;;2081565;28;20060;-65
2020/12/25 05:20:03;;;;;;;5.85;2.35;;;6.50;69.00;;;;;;2081340;28;20467;-64
2020/12/25 05:21:09;;;;;;;6.95;2.33;;;6.50;69.00;;;;;;2072702;28;20541;-63
2020/12/25 05:22:10;;;;;;;5.25;2.03;;;6.50;69.00;;;;;;2074133;28;20034;-64